createdAt,value
2022-10-19T00:01:36.834Z,57.72
2022-10-19T00:04:39.175Z,65.50
2022-10-19T00:07:41.545Z,61.07
2022-10-19T00:10:43.817Z,62.50
2022-10-19T00:13:46.206Z,52.05
2022-10-19T00:16:50.424Z,51.55
2022-10-19T00:19:52.683Z,46.50
2022-10-19T00:22:54.989Z,35.97
2022-10-19T00:25:57.846Z,35.55
2022-10-19T00:29:00.250Z,32.83
2022-10-19T00:32:02.547Z,34.67
2022-10-19T00:35:05.220Z,30.33
2022-10-19T00:38:07.478Z,32.27
2022-10-19T00:41:09.758Z,30.33
2022-10-19T00:44:11.912Z,29.40
2022-10-19T00:47:14.610Z,32.58
2022-10-19T00:50:17.472Z,33.42
2022-10-19T00:53:20.242Z,38.07
2022-10-19T00:56:23.051Z,38.05
2022-10-19T00:59:27.164Z,28.27
2022-10-19T01:02:29.484Z,33.53
2022-10-19T01:05:33.023Z,32.55
2022-10-19T01:08:35.321Z,28.93
2022-10-19T01:11:46.687Z,25.40
2022-10-19T01:15:29.152Z,33.28
2022-10-19T01:18:52.520Z,32.53
2022-10-19T01:22:32.539Z,31.10
2022-10-19T01:25:54.687Z,29.80
2022-10-19T01:28:56.900Z,30.15
2022-10-19T01:32:08.418Z,28.92
2022-10-19T01:35:26.184Z,27.63
2022-10-19T01:38:36.281Z,23.95
2022-10-19T01:41:49.768Z,27.97
2022-10-19T01:44:53.183Z,38.72
2022-10-19T01:48:00.090Z,30.60
2022-10-19T01:51:05.697Z,32.35
2022-10-19T01:54:12.037Z,33.08
2022-10-19T01:57:18.927Z,34.83
2022-10-19T02:00:22.659Z,32.50
2022-10-19T02:03:26.097Z,30.95
2022-10-19T02:06:28.390Z,38.83
2022-10-19T02:09:30.773Z,28.98
2022-10-19T02:12:33.954Z,30.30
2022-10-19T02:15:38.872Z,26.15
2022-10-19T02:18:46.061Z,25.55
2022-10-19T02:21:48.909Z,35.92
2022-10-19T02:24:51.177Z,30.30
2022-10-19T02:27:53.517Z,27.97
2022-10-19T02:30:56.530Z,26.80
2022-10-19T02:33:58.793Z,26.08
2022-10-19T02:37:01.110Z,23.58
2022-10-19T02:40:04.939Z,25.55
2022-10-19T02:43:11.719Z,23.53
2022-10-19T02:46:19.926Z,34.38
2022-10-19T02:49:22.596Z,26.88
2022-10-19T02:52:24.880Z,27.65
2022-10-19T02:55:28.608Z,27.00
2022-10-19T02:58:30.862Z,31.53
2022-10-19T03:01:33.152Z,30.70
2022-10-19T03:04:35.537Z,35.25
2022-10-19T03:07:37.984Z,28.30
2022-10-19T03:10:40.271Z,36.05
2022-10-19T03:13:43.508Z,31.10
2022-10-19T03:16:45.822Z,32.30
2022-10-19T03:19:48.055Z,24.25
2022-10-19T03:22:50.743Z,20.10
2022-10-19T03:25:53.070Z,20.80
2022-10-19T03:28:55.345Z,16.63
2022-10-19T03:31:57.613Z,22.15
2022-10-19T03:34:59.862Z,23.27
2022-10-19T03:38:02.143Z,21.73
2022-10-19T03:41:07.333Z,21.98
2022-10-19T03:44:10.770Z,19.23
2022-10-19T03:47:13.076Z,18.08
2022-10-19T03:50:17.075Z,22.63
2022-10-19T03:53:19.383Z,22.70
2022-10-19T03:56:24.041Z,19.95
2022-10-19T03:59:26.472Z,19.70
2022-10-19T04:02:29.316Z,19.67
2022-10-19T04:05:31.598Z,18.73
2022-10-19T04:08:34.368Z,17.98
2022-10-19T04:11:36.977Z,23.40
2022-10-19T04:14:56.383Z,18.50
2022-10-19T04:17:59.825Z,19.85
2022-10-19T04:21:04.157Z,21.58
2022-10-19T04:24:12.423Z,19.88
2022-10-19T04:27:14.650Z,22.42
2022-10-19T04:30:16.958Z,19.63
2022-10-19T04:33:19.272Z,22.52
2022-10-19T04:36:21.949Z,22.27
2022-10-19T04:39:24.254Z,23.73
2022-10-19T04:42:26.509Z,18.83
2022-10-19T04:45:28.806Z,17.37
2022-10-19T04:48:31.081Z,23.70
2022-10-19T04:51:33.652Z,19.67
2022-10-19T04:54:36.130Z,23.55
2022-10-19T04:57:38.386Z,26.95
2022-10-19T05:00:40.682Z,29.37
2022-10-19T05:03:43.421Z,27.27
2022-10-19T05:06:45.807Z,20.73
2022-10-19T05:09:48.032Z,22.92
2022-10-19T05:12:50.358Z,20.42
2022-10-19T05:15:57.252Z,23.23
2022-10-19T05:18:59.837Z,26.55
2022-10-19T05:22:02.130Z,18.50
2022-10-19T05:25:05.369Z,17.88
2022-10-19T05:28:07.661Z,31.08
2022-10-19T05:31:12.887Z,23.93
2022-10-19T05:34:15.125Z,20.35
2022-10-19T05:37:17.461Z,29.88
2022-10-19T05:40:19.792Z,17.95
2022-10-19T05:43:22.100Z,17.90
2022-10-19T05:46:25.515Z,26.27
2022-10-19T05:49:27.854Z,23.88
2022-10-19T05:52:30.145Z,17.58
2022-10-19T05:55:35.551Z,19.63
2022-10-19T05:58:37.884Z,23.13
2022-10-19T06:01:40.232Z,17.47
2022-10-19T06:04:42.602Z,19.23
2022-10-19T06:07:44.884Z,24.02
2022-10-19T06:10:47.451Z,15.63
2022-10-19T06:13:51.020Z,18.60
2022-10-19T06:16:53.408Z,19.90
2022-10-19T06:19:55.712Z,16.98
2022-10-19T06:22:57.990Z,19.63
2022-10-19T06:26:03.248Z,21.40
2022-10-19T06:29:05.723Z,25.33
2022-10-19T06:32:07.990Z,26.77
2022-10-19T06:35:10.265Z,23.13
2022-10-19T06:38:14.032Z,21.58
2022-10-19T06:41:17.098Z,22.70
2022-10-19T06:44:19.561Z,24.98
2022-10-19T06:47:21.901Z,26.23
2022-10-19T06:50:24.230Z,23.45
2022-10-19T06:53:27.131Z,24.58
2022-10-19T06:56:29.485Z,26.90
2022-10-19T06:59:31.779Z,25.05
2022-10-19T07:02:34.553Z,45.83
2022-10-19T07:05:36.836Z,18.52
2022-10-19T07:08:40.705Z,21.25
2022-10-19T07:11:46.107Z,18.35
2022-10-19T07:14:48.656Z,16.00
2022-10-19T07:17:53.204Z,16.60
2022-10-19T07:21:00.064Z,17.40
2022-10-19T07:24:02.336Z,14.48
2022-10-19T07:27:04.604Z,13.48
2022-10-19T07:30:07.469Z,17.60
2022-10-19T07:33:09.803Z,9.93
2022-10-19T07:36:13.755Z,13.10
2022-10-19T07:39:19.828Z,14.55
2022-10-19T07:45:30.120Z,12.52
2022-10-19T07:48:32.789Z,12.93
2022-10-19T07:51:35.156Z,10.57
2022-10-19T07:54:37.384Z,9.93
2022-10-19T07:57:41.589Z,12.90
2022-10-19T08:00:45.989Z,7.68
2022-10-19T08:07:11.106Z,11.35
2022-10-19T08:10:13.375Z,10.05
2022-10-19T08:13:15.649Z,8.70
2022-10-19T08:16:29.041Z,7.22
2022-10-19T08:19:31.283Z,5.80
2022-10-19T08:22:34.066Z,5.05
2022-10-19T08:25:37.423Z,11.43
2022-10-19T08:28:39.969Z,10.18
2022-10-19T08:31:43.229Z,11.88
2022-10-19T08:34:45.460Z,8.83
2022-10-19T08:37:48.022Z,7.20
2022-10-19T08:40:50.673Z,7.75
2022-10-19T08:44:10.129Z,6.05
2022-10-19T08:47:37.683Z,7.28
2022-10-19T08:50:43.234Z,6.30
2022-10-19T08:53:56.460Z,6.60
2022-10-19T08:57:28.024Z,7.70
2022-10-19T09:03:57.124Z,5.00
2022-10-19T09:07:27.378Z,4.47
2022-10-19T09:10:36.073Z,3.88
2022-10-19T09:14:04.234Z,4.68
2022-10-19T09:17:13.308Z,6.30
2022-10-19T09:20:22.056Z,6.20
2022-10-19T09:23:40.479Z,4.17
2022-10-19T09:26:54.429Z,8.07
2022-10-19T09:30:06.261Z,3.85
2022-10-19T09:33:15.412Z,9.10
2022-10-19T09:36:22.645Z,3.85
2022-10-19T09:39:30.891Z,4.77
2022-10-19T09:42:34.545Z,6.07
2022-10-19T09:45:55.152Z,4.22
2022-10-19T09:48:59.673Z,7.13
2022-10-19T09:52:01.969Z,6.35
2022-10-19T09:55:10.441Z,13.77
2022-10-19T09:58:15.672Z,5.13
2022-10-19T10:01:41.864Z,4.43
2022-10-19T10:05:04.350Z,3.90
2022-10-19T10:08:15.117Z,5.70
2022-10-19T10:11:26.981Z,5.13
2022-10-19T10:14:33.103Z,3.70
2022-10-19T10:17:37.080Z,4.20
2022-10-19T10:41:49.429Z,3.75
2022-10-19T10:44:53.236Z,2.88
2022-10-19T10:47:55.618Z,3.03
2022-10-19T10:51:00.261Z,15.53
2022-10-19T10:54:32.796Z,4.30
2022-10-19T10:58:18.544Z,18.85
2022-10-19T11:01:23.589Z,8.40
2022-10-19T11:04:30.069Z,7.50
2022-10-19T11:07:33.896Z,7.20
2022-10-19T11:10:55.750Z,3.08
2022-10-19T11:14:29.408Z,3.58
2022-10-19T11:17:34.539Z,4.60
2022-10-19T11:20:42.950Z,2.28
2022-10-19T11:24:03.770Z,1.00
2022-10-19T11:27:15.108Z,2.55
2022-10-19T11:30:22.475Z,5.13
2022-10-19T11:33:53.960Z,8.15
2022-10-19T11:37:05.651Z,1.10
2022-10-19T11:40:13.517Z,3.37
2022-10-19T11:43:24.908Z,18.88
2022-10-19T11:46:47.480Z,7.75
2022-10-19T11:49:58.605Z,2.72
2022-10-19T11:53:33.420Z,11.57
2022-10-19T11:57:01.860Z,10.07
2022-10-19T12:00:27.305Z,6.30
2022-10-19T12:03:55.897Z,3.10
2022-10-19T12:07:34.970Z,4.05
2022-10-19T12:10:56.712Z,12.00
2022-10-19T12:14:06.557Z,2.60
2022-10-19T12:20:28.786Z,4.00
2022-10-19T12:23:35.982Z,6.93
2022-10-19T12:26:40.389Z,6.15
2022-10-19T12:29:50.353Z,4.40
2022-10-19T12:33:01.995Z,5.17
2022-10-19T12:36:41.574Z,2.67
2022-10-19T12:39:46.871Z,1.98
2022-10-19T12:42:51.691Z,7.40
2022-10-19T12:46:15.288Z,5.00
2022-10-19T12:49:26.663Z,2.03
2022-10-19T12:52:49.079Z,5.90
2022-10-19T12:56:09.682Z,2.60
2022-10-19T12:59:24.177Z,3.92
2022-10-19T13:05:35.501Z,3.00
2022-10-19T13:08:55.816Z,1.35
2022-10-19T13:12:25.822Z,0.80
2022-10-19T13:15:34.372Z,2.13
2022-10-19T13:19:03.165Z,4.53
2022-10-19T13:22:28.548Z,1.00
2022-10-19T13:25:41.147Z,1.70
2022-10-19T13:28:53.623Z,2.17
2022-10-19T13:31:56.039Z,1.00
2022-10-19T13:35:30.815Z,2.73
2022-10-19T13:38:33.786Z,4.93
2022-10-19T13:41:39.050Z,2.25
2022-10-19T13:44:45.606Z,3.03
2022-10-19T13:47:51.928Z,2.72
2022-10-19T13:51:05.238Z,2.73
2022-10-19T13:54:29.325Z,2.73
2022-10-19T13:57:57.027Z,3.53
2022-10-19T14:01:32.787Z,4.82
2022-10-19T14:05:03.273Z,2.80
2022-10-19T14:08:36.517Z,15.40
2022-10-19T14:11:41.301Z,8.47
2022-10-19T14:14:44.647Z,7.85
2022-10-19T14:17:46.983Z,4.40
2022-10-19T14:20:57.181Z,9.00
2022-10-19T14:23:59.866Z,9.03
2022-10-19T14:27:07.032Z,5.27
2022-10-19T14:30:31.534Z,5.90
2022-10-19T14:33:36.685Z,4.60
2022-10-19T14:36:44.324Z,9.10
2022-10-19T14:40:04.426Z,9.23
2022-10-19T14:43:24.712Z,4.37
2022-10-19T14:46:32.439Z,5.93
2022-10-19T14:49:34.697Z,4.47
2022-10-19T14:52:38.627Z,8.20
2022-10-19T14:55:41.269Z,14.00
2022-10-19T14:59:18.783Z,4.83
2022-10-19T15:02:24.762Z,6.85
2022-10-19T15:05:30.027Z,15.45
2022-10-19T15:08:42.672Z,3.25
2022-10-19T15:11:49.960Z,8.93
2022-10-19T15:14:52.299Z,2.27
2022-10-19T15:17:56.542Z,4.43
2022-10-19T15:21:12.490Z,2.33
2022-10-19T15:24:26.463Z,6.63
2022-10-19T15:27:39.754Z,7.17
2022-10-19T15:30:42.005Z,4.83
2022-10-19T15:33:50.036Z,5.88
2022-10-19T15:37:00.917Z,3.13
2022-10-19T15:40:13.828Z,4.65
2022-10-19T15:43:34.483Z,2.50
2022-10-19T15:46:49.170Z,1.87
2022-10-19T15:49:57.238Z,4.40
2022-10-19T15:52:59.588Z,5.82
2022-10-19T15:59:17.996Z,5.20
2022-10-19T16:02:20.252Z,3.10
2022-10-19T16:05:22.821Z,5.43
2022-10-19T16:08:25.632Z,4.15
2022-10-19T16:11:29.043Z,6.38
2022-10-19T16:14:34.354Z,4.13
2022-10-19T16:17:39.331Z,3.67
2022-10-19T16:20:42.769Z,5.80
2022-10-19T16:23:45.342Z,2.47
2022-10-19T16:26:47.578Z,6.68
2022-10-19T16:29:49.783Z,3.67
2022-10-19T16:32:52.015Z,3.70
2022-10-19T16:35:54.271Z,3.90
2022-10-19T16:38:56.558Z,5.20
2022-10-19T16:41:58.931Z,2.90
2022-10-19T16:45:01.271Z,13.97
2022-10-19T16:48:03.562Z,2.33
2022-10-19T16:51:05.797Z,4.82
2022-10-19T16:54:10.596Z,3.60
2022-10-19T16:57:12.932Z,4.07
2022-10-19T17:00:15.280Z,4.13
2022-10-19T17:03:17.494Z,5.27
2022-10-19T17:06:19.892Z,6.22
2022-10-19T17:09:41.884Z,21.63
2022-10-19T17:12:44.466Z,3.55
2022-10-19T17:15:46.727Z,5.87
2022-10-19T17:18:49.470Z,4.90
2022-10-19T17:21:55.338Z,7.10
2022-10-19T17:24:57.650Z,6.13
2022-10-19T17:27:59.924Z,3.25
2022-10-19T17:31:10.711Z,2.80
2022-10-19T17:34:13.203Z,6.37
2022-10-19T17:37:15.478Z,2.33
2022-10-19T17:40:17.950Z,7.28
2022-10-19T17:43:20.206Z,4.32
2022-10-19T17:46:28.287Z,4.87
2022-10-19T17:49:30.574Z,2.23
2022-10-19T17:52:32.860Z,4.13
2022-10-19T17:55:36.985Z,6.22
2022-10-19T17:58:40.022Z,11.32
2022-10-19T18:01:42.858Z,4.10
2022-10-19T18:04:45.230Z,5.23
2022-10-19T18:07:49.283Z,3.17
2022-10-19T18:11:07.078Z,6.47
2022-10-19T18:14:11.301Z,8.15
2022-10-19T18:17:13.578Z,3.90
2022-10-19T18:20:15.869Z,7.40
2022-10-19T18:23:18.954Z,7.22
2022-10-19T18:26:23.362Z,5.43
2022-10-19T18:29:26.572Z,6.65
2022-10-19T18:32:28.819Z,4.27
2022-10-19T18:35:37.933Z,5.63
2022-10-19T18:38:40.326Z,7.60
2022-10-19T18:41:43.059Z,5.93
2022-10-19T18:44:47.238Z,5.03
2022-10-19T18:47:49.521Z,4.57
2022-10-19T18:50:52.014Z,5.70
2022-10-19T18:53:55.014Z,5.65
2022-10-19T18:56:57.753Z,6.65
2022-10-19T19:00:00.220Z,7.75
2022-10-19T19:03:02.549Z,5.03
2022-10-19T19:06:26.664Z,7.07
2022-10-19T19:09:29.014Z,5.70
2022-10-19T19:12:31.369Z,5.40
2022-10-19T19:15:33.775Z,5.78
2022-10-19T19:18:36.150Z,5.00
2022-10-19T19:21:41.178Z,5.73
2022-10-19T19:24:43.535Z,6.82
2022-10-19T19:27:45.940Z,7.55
2022-10-19T19:30:48.590Z,8.95
2022-10-19T19:33:50.875Z,5.37
2022-10-19T19:36:53.206Z,5.73
2022-10-19T19:39:55.467Z,5.20
2022-10-19T19:42:57.675Z,4.22
2022-10-19T19:46:04.667Z,10.63
2022-10-19T19:49:10.398Z,4.80
2022-10-19T19:52:12.782Z,6.73
2022-10-19T19:55:18.134Z,6.97
2022-10-19T19:58:20.512Z,5.38
2022-10-19T20:01:23.214Z,5.43
2022-10-19T20:04:25.474Z,4.00
2022-10-19T20:07:27.734Z,5.97
2022-10-19T20:10:30.052Z,4.15
2022-10-19T20:13:32.488Z,11.32
2022-10-19T20:16:34.869Z,4.22
2022-10-19T20:19:37.163Z,8.00
2022-10-19T20:22:49.907Z,5.27
2022-10-19T20:25:56.732Z,3.63
2022-10-19T20:28:59.223Z,8.70
2022-10-19T20:32:01.868Z,6.28
2022-10-19T20:35:04.390Z,5.63
2022-10-19T20:38:06.725Z,7.93
2022-10-19T20:41:09.784Z,8.20
2022-10-19T20:44:12.015Z,7.63
2022-10-19T20:47:14.362Z,6.78
2022-10-19T20:50:19.301Z,7.20
2022-10-19T20:53:24.069Z,7.50
2022-10-19T20:56:28.542Z,5.35
2022-10-19T20:59:33.048Z,8.85
2022-10-19T21:02:35.502Z,4.28
2022-10-19T21:05:38.417Z,7.97
2022-10-19T21:08:40.772Z,5.43
2022-10-19T21:11:44.304Z,3.70
2022-10-19T21:14:46.578Z,9.48
2022-10-19T21:17:48.846Z,9.00
2022-10-19T21:20:51.141Z,7.03
2022-10-19T21:23:55.945Z,5.87
2022-10-19T21:27:00.956Z,11.38
2022-10-19T21:30:04.130Z,6.20
2022-10-19T21:33:06.331Z,4.65
2022-10-19T21:36:09.870Z,5.30
2022-10-19T21:39:12.296Z,4.20
2022-10-19T21:42:14.562Z,3.80
2022-10-19T21:45:29.917Z,5.38
2022-10-19T21:48:33.844Z,5.82
2022-10-19T21:51:58.505Z,6.07
2022-10-19T21:55:00.714Z,6.70
2022-10-19T21:58:03.951Z,6.00
2022-10-19T22:01:07.200Z,7.13
2022-10-19T22:04:14.710Z,5.78
2022-10-19T22:07:17.044Z,4.17
2022-10-19T22:10:19.429Z,5.17
2022-10-19T22:13:21.817Z,12.02
2022-10-19T22:16:25.293Z,4.72
2022-10-19T22:19:27.681Z,5.30
2022-10-19T22:22:30.081Z,4.53
2022-10-19T22:25:35.867Z,6.07
2022-10-19T22:28:38.144Z,5.15
2022-10-19T22:31:40.616Z,3.58
2022-10-19T22:34:42.873Z,5.80
2022-10-19T22:37:45.155Z,2.83
2022-10-19T22:40:47.469Z,4.93
2022-10-19T22:43:49.809Z,5.22
2022-10-19T22:46:52.148Z,7.28
2022-10-19T22:49:54.420Z,7.80
2022-10-19T22:52:56.784Z,7.30
2022-10-19T22:55:59.198Z,5.10
2022-10-19T22:59:02.897Z,7.13
2022-10-19T23:02:05.258Z,9.13
2022-10-19T23:05:08.045Z,7.72
2022-10-19T23:08:10.379Z,7.43
2022-10-19T23:11:12.734Z,9.63
2022-10-19T23:14:15.597Z,7.40
2022-10-19T23:17:17.959Z,11.13
2022-10-19T23:20:20.212Z,8.95
2022-10-19T23:23:23.253Z,10.40
2022-10-19T23:26:25.566Z,6.30
2022-10-19T23:29:27.878Z,7.22
2022-10-19T23:32:30.247Z,8.30
2022-10-19T23:35:32.607Z,5.65
2022-10-19T23:38:36.001Z,7.90
2022-10-19T23:41:38.315Z,7.27
2022-10-19T23:44:40.648Z,5.03
2022-10-19T23:47:43.021Z,9.35
2022-10-19T23:50:45.345Z,7.65
2022-10-19T23:53:49.582Z,6.50
2022-10-19T23:56:51.984Z,5.33
2022-10-19T23:59:54.243Z,5.68
